THA971 LSZH-VTBS
Flight info
| Callsign | THA971 |
|---|---|
| Flight time | N/A |
| Altitude | 35000 |
| Route | DEGES Z2 UMVEG/N0482F370 DCT DIMLO DCT NISVA DCT UDROS UM859 KARDE UL851 TBN UM11 DELEL/N0477F390 UM11 REBLO M11 LUSAL N701 LARGI B701 TUGTA A909 LEMOD N644 DI A466 SULOM M890 LAKET/N0489F410 M890 LKN R460 CEA L507 IGONI DCT WILLA WILLA1C |
| Aircraft | B772/H-SDE2E3FGHIJ5LORVWXY/LB1D1 |
Departure
| Time | 2026-04-30 09:48 |
|---|---|
| Airport | Zürich Airport (LSZH) |
Arrival
| Time | N/A |
|---|---|
| Airport | Suvarnabhumi Airport (VTBS) |
| Time | Latitude | Longitude | Altitude | Speed | Heading |
|---|---|---|---|---|---|
| 2026-04-30 09:08 | 47.46029 | 8.55735 | 1407 ft | 0 kts | 6° |
| 2026-04-30 09:25 | 47.46027 | 8.55735 | 1407 ft | 1 kts | 6° |
| 2026-04-30 09:25 | 47.46009 | 8.55732 | 1414 ft | 3 kts | 7° |
| 2026-04-30 09:25 | 47.45989 | 8.55729 | 1413 ft | 3 kts | 355° |
| 2026-04-30 09:25 | 47.45972 | 8.55733 | 1415 ft | 2 kts | 340° |
| 2026-04-30 09:26 | 47.45956 | 8.55746 | 1417 ft | 3 kts | 309° |
| 2026-04-30 09:26 | 47.45947 | 8.55771 | 1411 ft | 3 kts | 282° |
| 2026-04-30 09:26 | 47.45944 | 8.55800 | 1413 ft | 3 kts | 275° |
| 2026-04-30 09:26 | 47.45943 | 8.55810 | 1412 ft | 1 kts | 276° |
| 2026-04-30 09:30 | 47.45943 | 8.55806 | 1412 ft | 0 kts | 276° |
| 2026-04-30 09:32 | 47.45944 | 8.55805 | 1412 ft | 0 kts | 276° |
| 2026-04-30 09:42 | 47.45944 | 8.55802 | 1409 ft | 3 kts | 276° |
| 2026-04-30 09:42 | 47.45953 | 8.55670 | 1407 ft | 15 kts | 276° |
| 2026-04-30 09:42 | 47.45964 | 8.55515 | 1411 ft | 15 kts | 276° |
| 2026-04-30 09:42 | 47.45975 | 8.55360 | 1404 ft | 15 kts | 276° |
| 2026-04-30 09:43 | 47.45984 | 8.55231 | 1402 ft | 12 kts | 276° |
| 2026-04-30 09:43 | 47.45993 | 8.55106 | 1407 ft | 12 kts | 276° |
| 2026-04-30 09:43 | 47.46003 | 8.54986 | 1398 ft | 11 kts | 285° |
| 2026-04-30 09:43 | 47.46060 | 8.54912 | 1405 ft | 11 kts | 334° |
| 2026-04-30 09:44 | 47.46131 | 8.54862 | 1404 ft | 11 kts | 335° |
| 2026-04-30 09:44 | 47.46202 | 8.54814 | 1402 ft | 11 kts | 335° |
| 2026-04-30 09:44 | 47.46287 | 8.54756 | 1386 ft | 18 kts | 335° |
| 2026-04-30 09:44 | 47.46429 | 8.54658 | 1388 ft | 26 kts | 335° |
| 2026-04-30 09:45 | 47.46606 | 8.54536 | 1400 ft | 28 kts | 334° |
| 2026-04-30 09:45 | 47.46788 | 8.54420 | 1383 ft | 28 kts | 339° |
| 2026-04-30 09:45 | 47.46968 | 8.54300 | 1383 ft | 28 kts | 335° |
| 2026-04-30 09:45 | 47.47148 | 8.54178 | 1386 ft | 28 kts | 335° |
| 2026-04-30 09:46 | 47.47310 | 8.54066 | 1395 ft | 25 kts | 335° |
| 2026-04-30 09:46 | 47.47467 | 8.53958 | 1407 ft | 25 kts | 335° |
| 2026-04-30 09:46 | 47.47579 | 8.53877 | 1408 ft | 12 kts | 324° |
| 2026-04-30 09:46 | 47.47609 | 8.53781 | 1409 ft | 10 kts | 270° |
| 2026-04-30 09:47 | 47.47582 | 8.53688 | 1411 ft | 10 kts | 227° |
| 2026-04-30 09:47 | 47.47519 | 8.53651 | 1407 ft | 10 kts | 182° |
| 2026-04-30 09:47 | 47.47453 | 8.53678 | 1409 ft | 10 kts | 156° |
| 2026-04-30 09:47 | 47.47243 | 8.53824 | 1402 ft | 75 kts | 153° |
| 2026-04-30 09:48 | 47.46503 | 8.54334 | 1384 ft | 157 kts | 155° |
| 2026-04-30 09:48 | 47.45413 | 8.55059 | 2033 ft | 169 kts | 150° |
| 2026-04-30 09:48 | 47.44373 | 8.55866 | 3060 ft | 176 kts | 146° |
| 2026-04-30 09:48 | 47.43359 | 8.57046 | 3457 ft | 197 kts | 121° |
| 2026-04-30 09:49 | 47.42852 | 8.58962 | 3611 ft | 211 kts | 91° |
| 2026-04-30 09:49 | 47.43105 | 8.61169 | 3811 ft | 228 kts | 63° |
| 2026-04-30 09:49 | 47.44157 | 8.62987 | 4275 ft | 237 kts | 42° |
| 2026-04-30 09:49 | 47.45400 | 8.64698 | 4635 ft | 249 kts | 53° |
| 2026-04-30 09:50 | 47.46132 | 8.66987 | 5162 ft | 250 kts | 77° |
| 2026-04-30 09:50 | 47.46415 | 8.70569 | 5775 ft | 252 kts | 88° |
| 2026-04-30 09:50 | 47.46475 | 8.73111 | 6005 ft | 248 kts | 89° |
| 2026-04-30 09:50 | 47.46529 | 8.75698 | 6270 ft | 254 kts | 89° |
| 2026-04-30 09:51 | 47.46595 | 8.78350 | 6531 ft | 255 kts | 88° |
| 2026-04-30 09:51 | 47.46682 | 8.80994 | 6799 ft | 246 kts | 88° |
| 2026-04-30 09:51 | 47.46588 | 8.83761 | 7354 ft | 248 kts | 103° |
| 2026-04-30 09:51 | 47.46131 | 8.86254 | 7760 ft | 257 kts | 103° |
| 2026-04-30 09:52 | 47.45608 | 8.89765 | 8644 ft | 260 kts | 101° |
| 2026-04-30 09:52 | 47.45241 | 8.92406 | 9168 ft | 268 kts | 101° |
| 2026-04-30 09:52 | 47.44857 | 8.95140 | 9773 ft | 273 kts | 100° |
| 2026-04-30 09:52 | 47.44467 | 8.97915 | 10391 ft | 279 kts | 101° |
| 2026-04-30 09:53 | 47.44055 | 9.00810 | 10653 ft | 298 kts | 101° |
| 2026-04-30 09:53 | 47.43614 | 9.03920 | 10824 ft | 321 kts | 101° |
| 2026-04-30 09:53 | 47.43139 | 9.07273 | 10995 ft | 344 kts | 100° |
| 2026-04-30 09:53 | 47.42638 | 9.10835 | 11335 ft | 361 kts | 101° |
| 2026-04-30 09:54 | 47.42120 | 9.14455 | 11972 ft | 369 kts | 101° |
| 2026-04-30 09:54 | 47.41591 | 9.18188 | 12777 ft | 371 kts | 99° |
| 2026-04-30 09:54 | 47.41449 | 9.21996 | 13392 ft | 375 kts | 81° |
| 2026-04-30 09:54 | 47.42046 | 9.25735 | 13914 ft | 378 kts | 74° |
| 2026-04-30 09:55 | 47.42696 | 9.29556 | 14566 ft | 385 kts | 76° |
| 2026-04-30 09:55 | 47.43300 | 9.33411 | 15502 ft | 384 kts | 76° |
| 2026-04-30 09:55 | 47.43889 | 9.37280 | 16341 ft | 387 kts | 76° |
| 2026-04-30 09:55 | 47.44470 | 9.41140 | 17176 ft | 390 kts | 76° |
| 2026-04-30 09:56 | 47.45061 | 9.45086 | 18002 ft | 394 kts | 76° |
| 2026-04-30 09:56 | 47.45657 | 9.49060 | 18778 ft | 398 kts | 76° |
| 2026-04-30 09:56 | 47.46255 | 9.53069 | 19485 ft | 401 kts | 76° |
| 2026-04-30 09:56 | 47.46807 | 9.57114 | 20235 ft | 404 kts | 79° |
| 2026-04-30 09:57 | 47.47073 | 9.61284 | 20974 ft | 408 kts | 85° |
| 2026-04-30 09:57 | 47.47064 | 9.65438 | 21733 ft | 412 kts | 90° |
| 2026-04-30 09:57 | 47.46824 | 9.69680 | 22424 ft | 414 kts | 91° |
| 2026-04-30 09:57 | 47.46569 | 9.73959 | 23050 ft | 418 kts | 91° |
| 2026-04-30 09:58 | 47.46315 | 9.78259 | 23652 ft | 422 kts | 91° |
| 2026-04-30 09:58 | 47.46063 | 9.82596 | 24187 ft | 425 kts | 91° |
| 2026-04-30 09:58 | 47.45813 | 9.86952 | 24719 ft | 426 kts | 91° |
| 2026-04-30 09:58 | 47.44867 | 10.03479 | 26569 ft | 432 kts | 91° |
| 2026-04-30 09:59 | 47.41222 | 10.38958 | 29676 ft | 447 kts | 97° |
| 2026-04-30 09:59 | 47.36227 | 10.75249 | 31655 ft | 455 kts | 97° |
| 2026-04-30 10:00 | 47.31044 | 11.11874 | 33544 ft | 459 kts | 97° |
| 2026-04-30 10:00 | 47.27151 | 11.38790 | 34720 ft | 463 kts | 97° |
| 2026-04-30 10:01 | 47.18595 | 12.15817 | 35560 ft | 489 kts | 94° |
| 2026-04-30 10:01 | 47.14713 | 12.55292 | 36711 ft | 488 kts | 95° |
| 2026-04-30 10:01 | 47.10599 | 12.94786 | 37365 ft | 491 kts | 95° |
| 2026-04-30 10:02 | 47.01987 | 13.73532 | 37339 ft | 489 kts | 96° |
| 2026-04-30 10:02 | 46.97524 | 14.12480 | 37324 ft | 478 kts | 96° |
| 2026-04-30 10:02 | 46.93017 | 14.50627 | 37348 ft | 475 kts | 96° |
| 2026-04-30 10:03 | 46.83453 | 15.28006 | 37514 ft | 492 kts | 97° |
| 2026-04-30 10:03 | 46.73067 | 16.07310 | 37392 ft | 497 kts | 98° |
| 2026-04-30 10:03 | 46.66909 | 16.46361 | 37301 ft | 499 kts | 115° |
| 2026-04-30 10:04 | 46.49631 | 16.77667 | 37530 ft | 498 kts | 127° |
| 2026-04-30 10:04 | 46.32723 | 17.10112 | 37509 ft | 509 kts | 126° |
| 2026-04-30 10:04 | 46.15191 | 17.42833 | 37459 ft | 519 kts | 127° |
| 2026-04-30 10:05 | 45.79394 | 18.08658 | 37345 ft | 520 kts | 127° |
| 2026-04-30 10:05 | 45.43866 | 18.72477 | 37335 ft | 509 kts | 128° |
| 2026-04-30 10:06 | 45.07742 | 19.35893 | 37402 ft | 523 kts | 130° |
| 2026-04-30 10:06 | 44.70985 | 19.99055 | 37218 ft | 518 kts | 131° |
| 2026-04-30 10:07 | 44.34150 | 20.60918 | 37359 ft | 520 kts | 132° |
| 2026-04-30 10:07 | 43.96245 | 21.23244 | 37310 ft | 530 kts | 133° |
| 2026-04-30 10:08 | 43.57919 | 21.84932 | 37186 ft | 521 kts | 135° |
| 2026-04-30 10:08 | 43.19656 | 22.45155 | 37330 ft | 529 kts | 135° |
| 2026-04-30 10:09 | 42.95674 | 23.14512 | 37344 ft | 532 kts | 74° |
| 2026-04-30 10:09 | 42.97750 | 23.55141 | 37277 ft | 540 kts | 93° |
| 2026-04-30 10:09 | 42.97076 | 23.95588 | 37191 ft | 539 kts | 89° |
| 2026-04-30 10:10 | 42.96382 | 24.77536 | 37229 ft | 540 kts | 90° |
| 2026-04-30 10:10 | 42.95007 | 25.59791 | 37197 ft | 541 kts | 91° |
| 2026-04-30 10:11 | 42.93047 | 26.41969 | 37195 ft | 540 kts | 92° |
| 2026-04-30 10:11 | 42.90497 | 27.23804 | 37197 ft | 538 kts | 93° |
| 2026-04-30 10:12 | 42.87401 | 28.04737 | 37179 ft | 537 kts | 94° |
| 2026-04-30 10:12 | 42.83726 | 28.85855 | 37189 ft | 534 kts | 95° |
| 2026-04-30 10:13 | 42.79506 | 29.66332 | 37171 ft | 532 kts | 95° |
| 2026-04-30 10:13 | 42.74731 | 30.46576 | 37183 ft | 532 kts | 96° |
| 2026-04-30 10:14 | 42.67043 | 31.26148 | 37179 ft | 530 kts | 99° |
| 2026-04-30 10:14 | 42.53793 | 32.44878 | 37185 ft | 529 kts | 101° |
| 2026-04-30 10:15 | 42.44302 | 33.23803 | 37155 ft | 529 kts | 101° |
| 2026-04-30 10:15 | 42.34285 | 34.02459 | 37137 ft | 529 kts | 102° |
| 2026-04-30 10:16 | 42.23745 | 34.80269 | 37132 ft | 529 kts | 102° |
| 2026-04-30 10:17 | 42.06884 | 35.97462 | 37156 ft | 530 kts | 103° |
| 2026-04-30 10:17 | 41.90967 | 37.00938 | 37157 ft | 530 kts | 104° |
| 2026-04-30 10:18 | 41.80117 | 37.36993 | 37181 ft | 522 kts | 117° |
| 2026-04-30 10:18 | 41.64997 | 37.84592 | 37191 ft | 524 kts | 116° |
| 2026-04-30 10:19 | 41.33763 | 38.79717 | 37165 ft | 524 kts | 116° |
| 2026-04-30 10:19 | 41.09834 | 39.50329 | 37152 ft | 521 kts | 117° |
| 2026-04-30 10:19 | 40.98627 | 39.85703 | 37106 ft | 526 kts | 99° |
| 2026-04-30 10:20 | 40.98465 | 40.24105 | 37248 ft | 521 kts | 93° |
| 2026-04-30 10:20 | 40.94740 | 41.39668 | 37092 ft | 523 kts | 92° |
| 2026-04-30 10:21 | 40.91641 | 42.16616 | 37086 ft | 523 kts | 93° |
| 2026-04-30 10:21 | 40.88060 | 42.92943 | 37619 ft | 528 kts | 94° |
| 2026-04-30 10:22 | 40.86052 | 43.31516 | 39070 ft | 525 kts | 95° |
| 2026-04-30 10:22 | 40.83902 | 43.70278 | 39234 ft | 532 kts | 95° |
| 2026-04-30 10:22 | 40.81227 | 44.48051 | 39011 ft | 519 kts | 94° |
| 2026-04-30 10:23 | 40.79742 | 44.85671 | 38990 ft | 508 kts | 95° |
| 2026-04-30 10:23 | 40.78141 | 45.23024 | 39113 ft | 512 kts | 95° |
| 2026-04-30 10:23 | 40.72447 | 45.98677 | 39207 ft | 526 kts | 99° |
| 2026-04-30 10:24 | 40.65071 | 46.75481 | 39078 ft | 523 kts | 100° |
| 2026-04-30 10:24 | 40.61243 | 47.13065 | 39059 ft | 512 kts | 101° |
| 2026-04-30 10:24 | 40.59746 | 47.50107 | 39118 ft | 516 kts | 93° |
| 2026-04-30 10:25 | 40.56906 | 48.26403 | 39216 ft | 529 kts | 96° |
| 2026-04-30 10:25 | 40.53043 | 49.04090 | 39116 ft | 528 kts | 96° |
| 2026-04-30 10:26 | 40.50954 | 49.42307 | 39031 ft | 517 kts | 96° |
| 2026-04-30 10:26 | 40.48811 | 49.79902 | 39108 ft | 517 kts | 97° |
| 2026-04-30 10:26 | 40.40409 | 50.55454 | 39225 ft | 531 kts | 103° |
| 2026-04-30 10:27 | 40.29804 | 51.31303 | 39087 ft | 527 kts | 104° |
| 2026-04-30 10:27 | 40.24361 | 51.68592 | 39052 ft | 515 kts | 104° |
| 2026-04-30 10:27 | 40.18884 | 52.05305 | 39114 ft | 515 kts | 104° |
| 2026-04-30 10:28 | 40.07399 | 52.79713 | 39196 ft | 529 kts | 105° |
| 2026-04-30 10:28 | 39.98535 | 53.56253 | 39051 ft | 529 kts | 101° |
| 2026-04-30 10:29 | 39.90517 | 54.31137 | 39080 ft | 519 kts | 102° |
| 2026-04-30 10:29 | 39.84196 | 54.67600 | 39107 ft | 514 kts | 113° |
| 2026-04-30 10:29 | 39.76370 | 55.04062 | 40027 ft | 525 kts | 110° |
| 2026-04-30 10:30 | 39.68433 | 55.40568 | 41035 ft | 525 kts | 111° |
| 2026-04-30 10:30 | 39.60307 | 55.77173 | 41189 ft | 529 kts | 111° |
| 2026-04-30 10:30 | 39.52077 | 56.13882 | 41052 ft | 527 kts | 111° |
| 2026-04-30 10:30 | 39.43985 | 56.49542 | 40929 ft | 515 kts | 112° |
| 2026-04-30 10:31 | 39.26863 | 57.19329 | 41050 ft | 510 kts | 114° |
| 2026-04-30 10:31 | 39.08454 | 57.89547 | 41067 ft | 522 kts | 115° |
| 2026-04-30 10:32 | 38.89279 | 58.60600 | 40995 ft | 529 kts | 116° |
| 2026-04-30 10:32 | 38.76561 | 58.93553 | 41049 ft | 515 kts | 124° |
| 2026-04-30 10:32 | 38.63503 | 59.26634 | 41061 ft | 522 kts | 124° |
| 2026-04-30 10:33 | 38.37978 | 59.94335 | 41015 ft | 532 kts | 122° |
| 2026-04-30 10:33 | 38.12229 | 60.61899 | 40966 ft | 536 kts | 122° |
| 2026-04-30 10:34 | 37.85723 | 61.30000 | 40938 ft | 539 kts | 123° |
| 2026-04-30 10:34 | 37.58110 | 61.97281 | 40897 ft | 522 kts | 133° |
| 2026-04-30 10:35 | 37.22629 | 62.56196 | 40979 ft | 538 kts | 134° |
| 2026-04-30 10:35 | 36.86359 | 63.16287 | 39624 ft | 540 kts | 134° |
| 2026-04-30 10:36 | 36.67838 | 63.46696 | 38116 ft | 556 kts | 135° |
| 2026-04-30 10:36 | 36.48794 | 63.77629 | 38481 ft | 568 kts | 135° |
| 2026-04-30 10:36 | 36.29526 | 64.08604 | 39655 ft | 563 kts | 135° |
| 2026-04-30 10:36 | 36.10593 | 64.39062 | 39980 ft | 569 kts | 133° |
| 2026-04-30 10:37 | 35.91933 | 64.70742 | 39874 ft | 566 kts | 133° |
| 2026-04-30 10:37 | 35.73328 | 65.01545 | 39773 ft | 552 kts | 134° |
| 2026-04-30 10:37 | 35.36957 | 65.61135 | 40037 ft | 548 kts | 134° |
| 2026-04-30 10:38 | 34.99425 | 66.21596 | 39914 ft | 564 kts | 133° |
| 2026-04-30 10:38 | 34.61513 | 66.81133 | 39868 ft | 544 kts | 134° |
| 2026-04-30 10:39 | 34.43115 | 67.09579 | 39971 ft | 543 kts | 134° |
| 2026-04-30 10:39 | 34.24273 | 67.38448 | 39942 ft | 548 kts | 133° |
| 2026-04-30 10:39 | 33.85776 | 67.96475 | 39935 ft | 555 kts | 134° |
| 2026-04-30 10:40 | 33.46517 | 68.53800 | 39798 ft | 552 kts | 135° |
| 2026-04-30 10:40 | 33.07832 | 69.10914 | 39895 ft | 558 kts | 131° |
| 2026-04-30 10:41 | 32.88738 | 69.40165 | 39788 ft | 559 kts | 131° |
| 2026-04-30 10:41 | 32.69573 | 69.69302 | 39786 ft | 557 kts | 131° |
| 2026-04-30 10:41 | 32.31170 | 70.27126 | 39745 ft | 559 kts | 130° |
| 2026-04-30 10:42 | 31.93296 | 70.85411 | 39648 ft | 559 kts | 130° |
| 2026-04-30 10:42 | 31.78250 | 71.17435 | 39747 ft | 560 kts | 116° |
| 2026-04-30 10:42 | 31.63726 | 71.49425 | 39687 ft | 561 kts | 118° |
| 2026-04-30 10:43 | 31.34187 | 72.13783 | 39646 ft | 560 kts | 118° |
| 2026-04-30 10:43 | 31.26630 | 72.47195 | 39466 ft | 512 kts | 69° |
| 2026-04-30 10:43 | 31.32563 | 72.80249 | 39956 ft | 544 kts | 80° |
| 2026-04-30 10:44 | 31.36179 | 73.15796 | 39866 ft | 555 kts | 77° |
| 2026-04-30 10:44 | 31.39939 | 73.51696 | 39696 ft | 554 kts | 78° |
| 2026-04-30 10:44 | 31.43569 | 73.87131 | 39594 ft | 539 kts | 78° |
| 2026-04-30 10:44 | 31.41601 | 74.22138 | 39701 ft | 549 kts | 104° |
| 2026-04-30 10:45 | 31.26077 | 74.90721 | 39820 ft | 557 kts | 104° |
| 2026-04-30 10:45 | 31.07907 | 75.60574 | 39668 ft | 564 kts | 109° |
| 2026-04-30 10:46 | 30.96161 | 75.94161 | 39573 ft | 551 kts | 108° |
| 2026-04-30 10:46 | 30.85110 | 76.27262 | 39665 ft | 548 kts | 108° |
| 2026-04-30 10:46 | 30.73792 | 76.60409 | 39787 ft | 556 kts | 108° |
| 2026-04-30 10:46 | 30.59096 | 76.91748 | 39851 ft | 568 kts | 130° |
| 2026-04-30 10:47 | 30.39354 | 77.20172 | 39688 ft | 564 kts | 137° |
| 2026-04-30 10:47 | 30.12402 | 77.35591 | 39785 ft | 548 kts | 156° |
| 2026-04-30 10:47 | 29.86097 | 77.54447 | 39821 ft | 566 kts | 142° |
| 2026-04-30 10:47 | 29.61582 | 77.77432 | 39724 ft | 568 kts | 144° |
| 2026-04-30 10:48 | 29.12424 | 78.20806 | 39571 ft | 545 kts | 144° |
| 2026-04-30 10:48 | 28.88269 | 78.41985 | 39695 ft | 551 kts | 144° |
| 2026-04-30 10:48 | 28.63669 | 78.63460 | 39768 ft | 562 kts | 144° |
| 2026-04-30 10:49 | 28.17562 | 79.11602 | 39652 ft | 563 kts | 135° |
| 2026-04-30 10:49 | 27.95545 | 79.36193 | 39590 ft | 550 kts | 135° |
| 2026-04-30 10:49 | 27.73892 | 79.60570 | 39708 ft | 549 kts | 136° |
| 2026-04-30 10:50 | 27.53530 | 79.86643 | 39837 ft | 557 kts | 128° |
| 2026-04-30 10:50 | 27.33498 | 80.13565 | 39807 ft | 565 kts | 130° |
| 2026-04-30 10:50 | 27.13131 | 80.40516 | 39706 ft | 562 kts | 130° |
| 2026-04-30 10:50 | 26.93054 | 80.66943 | 39634 ft | 549 kts | 130° |
| 2026-04-30 10:51 | 26.55601 | 81.20641 | 39809 ft | 552 kts | 124° |
| 2026-04-30 10:51 | 26.18866 | 81.76366 | 39758 ft | 557 kts | 125° |
| 2026-04-30 10:52 | 26.00805 | 82.03523 | 39646 ft | 546 kts | 125° |
| 2026-04-30 10:52 | 25.82819 | 82.30480 | 39682 ft | 541 kts | 125° |
| 2026-04-30 10:52 | 25.64789 | 82.57307 | 39816 ft | 545 kts | 126° |
| 2026-04-30 10:52 | 25.46653 | 82.84318 | 39745 ft | 547 kts | 123° |
| 2026-04-30 10:53 | 25.35614 | 83.15222 | 39786 ft | 540 kts | 105° |
| 2026-04-30 10:53 | 25.25100 | 83.46489 | 39819 ft | 544 kts | 109° |
| 2026-04-30 10:53 | 25.03780 | 84.09095 | 39785 ft | 544 kts | 109° |
| 2026-04-30 10:54 | 24.82409 | 84.70846 | 39788 ft | 540 kts | 110° |
| 2026-04-30 10:54 | 24.70692 | 85.01214 | 39747 ft | 539 kts | 123° |
| 2026-04-30 10:54 | 24.53296 | 85.27917 | 39847 ft | 537 kts | 125° |
| 2026-04-30 10:55 | 24.19730 | 85.82158 | 39816 ft | 535 kts | 126° |
| 2026-04-30 10:55 | 23.86076 | 86.35686 | 39820 ft | 530 kts | 127° |
| 2026-04-30 10:56 | 23.55033 | 86.90345 | 39787 ft | 532 kts | 123° |
| 2026-04-30 10:56 | 23.24365 | 87.45064 | 39815 ft | 524 kts | 122° |
| 2026-04-30 10:57 | 22.93949 | 87.98836 | 39749 ft | 520 kts | 122° |
| 2026-04-30 10:57 | 22.63399 | 88.51765 | 39848 ft | 518 kts | 127° |
| 2026-04-30 10:58 | 22.29683 | 89.02325 | 39805 ft | 517 kts | 127° |
| 2026-04-30 10:58 | 21.97882 | 89.53799 | 39768 ft | 511 kts | 126° |
| 2026-04-30 10:59 | 21.66203 | 90.04582 | 39770 ft | 509 kts | 126° |
| 2026-04-30 10:59 | 21.34511 | 90.54836 | 39830 ft | 506 kts | 127° |
| 2026-04-30 11:00 | 21.03093 | 91.04340 | 39809 ft | 503 kts | 127° |
| 2026-04-30 11:00 | 20.71562 | 91.53593 | 39810 ft | 501 kts | 128° |
| 2026-04-30 11:01 | 20.40227 | 92.02116 | 39822 ft | 495 kts | 128° |
| 2026-04-30 11:01 | 20.13726 | 92.42151 | 39845 ft | 493 kts | 129° |
| 2026-04-30 11:02 | 19.82028 | 92.89684 | 39835 ft | 491 kts | 129° |
| 2026-04-30 11:02 | 19.45197 | 93.44467 | 39829 ft | 490 kts | 129° |
| 2026-04-30 11:03 | 19.18562 | 93.83773 | 39839 ft | 490 kts | 129° |
| 2026-04-30 11:04 | 18.70714 | 94.53781 | 39886 ft | 493 kts | 129° |
| 2026-04-30 11:04 | 18.39079 | 95.01084 | 39840 ft | 494 kts | 128° |
| 2026-04-30 11:05 | 18.06704 | 95.47582 | 39830 ft | 491 kts | 129° |
| 2026-04-30 11:05 | 17.73910 | 95.93523 | 39843 ft | 493 kts | 129° |
| 2026-04-30 11:06 | 17.40970 | 96.39306 | 39808 ft | 495 kts | 129° |
| 2026-04-30 11:06 | 17.07296 | 96.85124 | 39822 ft | 497 kts | 129° |
| 2026-04-30 11:07 | 16.73244 | 97.30915 | 39830 ft | 498 kts | 129° |
| 2026-04-30 11:07 | 16.39111 | 97.76522 | 39817 ft | 497 kts | 129° |
| 2026-04-30 11:07 | 16.19216 | 97.95528 | 39861 ft | 491 kts | 142° |
| 2026-04-30 11:08 | 15.98393 | 98.14134 | 39745 ft | 485 kts | 140° |
| 2026-04-30 11:08 | 15.78007 | 98.32412 | 37565 ft | 488 kts | 141° |
| 2026-04-30 11:08 | 15.57397 | 98.50816 | 36628 ft | 485 kts | 142° |
| 2026-04-30 11:08 | 15.38615 | 98.70496 | 35169 ft | 497 kts | 128° |
| 2026-04-30 11:09 | 15.21265 | 98.93411 | 35509 ft | 519 kts | 132° |
| 2026-04-30 11:09 | 14.80404 | 99.45307 | 35800 ft | 546 kts | 130° |
| 2026-04-30 11:09 | 14.25885 | 100.19225 | 36300 ft | 554 kts | 127° |
| 2026-04-30 11:09 | 13.79169 | 100.89220 | 36735 ft | 562 kts | 123° |
| 2026-04-30 11:10 | 13.32656 | 101.73076 | 34465 ft | 457 kts | 117° |
| 2026-04-30 11:10 | 13.06618 | 102.36351 | 15088 ft | 416 kts | 108° |
| 2026-04-30 11:10 | 12.95039 | 102.87330 | 1531 ft | 143 kts | 102° |
| 2026-04-30 11:10 | 12.94265 | 102.91728 | 207 ft | 0 kts | 101° |